createdAt,value
2019-04-05T00:01:07.396Z,8.13
2019-04-05T00:03:37.095Z,8.63
2019-04-05T00:06:06.569Z,8.37
2019-04-05T00:08:35.983Z,8.90
2019-04-05T00:11:05.484Z,8.40
2019-04-05T00:13:34.856Z,7.83
2019-04-05T00:16:04.391Z,7.80
2019-04-05T00:18:34.165Z,7.87
2019-04-05T00:21:03.576Z,7.57
2019-04-05T00:23:32.946Z,8.00
2019-04-05T00:26:02.316Z,8.77
2019-04-05T00:28:31.793Z,8.53
2019-04-05T00:31:01.156Z,8.83
2019-04-05T00:33:30.494Z,7.97
2019-04-05T00:35:59.933Z,9.00
2019-04-05T00:38:29.307Z,9.20
2019-04-05T00:40:58.711Z,10.17
2019-04-05T00:43:28.108Z,9.47
2019-04-05T00:45:57.479Z,10.13
2019-04-05T00:48:26.877Z,9.43
2019-04-05T00:50:56.388Z,9.87
2019-04-05T00:53:26.103Z,10.60
2019-04-05T00:55:55.508Z,10.70
2019-04-05T00:58:24.883Z,10.57
2019-04-05T01:00:54.241Z,10.67
2019-04-05T01:03:23.621Z,10.10
2019-04-05T01:05:53.007Z,10.80
2019-04-05T01:08:22.541Z,9.40
2019-04-05T01:10:52.171Z,8.73
2019-04-05T01:13:22.015Z,9.17
2019-04-05T01:15:51.469Z,9.30
2019-04-05T01:18:20.887Z,8.10
2019-04-05T01:20:51.872Z,8.70
2019-04-05T01:23:22.720Z,8.40
2019-04-05T01:25:54.211Z,9.00
2019-04-05T01:28:24.669Z,8.83
2019-04-05T01:30:54.040Z,8.57
2019-04-05T01:33:23.593Z,8.83
2019-04-05T01:35:52.981Z,8.80
2019-04-05T01:38:22.337Z,8.77
2019-04-05T01:40:52.539Z,7.83
2019-04-05T01:43:22.493Z,9.17
2019-04-05T01:45:54.043Z,8.97
2019-04-05T01:48:23.202Z,9.03
2019-04-05T01:50:52.695Z,8.40
2019-04-05T01:53:22.188Z,9.20
2019-04-05T01:55:51.568Z,8.87
2019-04-05T01:58:20.908Z,9.03
2019-04-05T02:00:50.339Z,9.60
2019-04-05T02:03:19.737Z,8.97
2019-04-05T02:05:49.095Z,9.03
2019-04-05T02:08:18.511Z,9.93
2019-04-05T02:10:47.994Z,9.60
2019-04-05T02:13:17.504Z,9.50
2019-04-05T02:15:46.907Z,9.60
2019-04-05T02:18:16.296Z,9.37
2019-04-05T02:20:45.656Z,10.00
2019-04-05T02:23:15.101Z,9.50
2019-04-05T02:25:44.519Z,9.50
2019-04-05T02:28:14.859Z,9.40
2019-04-05T02:30:44.333Z,9.63
2019-04-05T02:33:13.891Z,9.43
2019-04-05T02:35:43.442Z,9.00
2019-04-05T02:38:12.987Z,10.10
2019-04-05T02:40:42.852Z,8.63
2019-04-05T02:43:15.268Z,9.13
2019-04-05T02:45:46.696Z,9.27
2019-04-05T02:48:16.644Z,9.67
2019-04-05T02:50:49.188Z,9.67
2019-04-05T02:53:20.183Z,10.07
2019-04-05T02:55:50.161Z,9.80
2019-04-05T02:58:22.809Z,9.30
2019-04-05T03:00:52.402Z,10.30
2019-04-05T03:03:21.976Z,10.27
2019-04-05T03:05:51.384Z,9.90
2019-04-05T03:08:21.853Z,9.77
2019-04-05T03:10:57.637Z,8.67
2019-04-05T03:13:29.263Z,9.67
2019-04-05T03:16:01.709Z,10.67
2019-04-05T03:18:33.588Z,10.80
2019-04-05T03:21:06.510Z,10.63
2019-04-05T03:23:38.873Z,10.80
2019-04-05T03:26:11.311Z,10.73
2019-04-05T03:28:43.358Z,10.47
2019-04-05T03:31:13.412Z,11.00
2019-04-05T03:33:43.427Z,11.47
2019-04-05T03:36:13.211Z,11.13
2019-04-05T03:38:42.688Z,10.93
2019-04-05T03:41:12.485Z,12.10
2019-04-05T03:43:42.066Z,12.37
2019-04-05T03:46:11.976Z,11.47
2019-04-05T03:48:41.397Z,11.47
2019-04-05T03:51:10.871Z,11.43
2019-04-05T03:53:40.363Z,12.13
2019-04-05T03:56:09.788Z,12.23
2019-04-05T03:58:39.175Z,10.73
2019-04-05T04:01:09.468Z,12.90
2019-04-05T04:03:39.130Z,13.23
2019-04-05T04:06:09.119Z,12.97
2019-04-05T04:08:38.605Z,13.50
2019-04-05T04:11:09.087Z,13.67
2019-04-05T04:13:39.324Z,14.00
2019-04-05T04:16:09.411Z,13.97
2019-04-05T04:18:40.201Z,13.27
2019-04-05T04:21:22.634Z,13.13
2019-04-05T04:23:52.155Z,13.60
2019-04-05T04:26:21.941Z,14.07
2019-04-05T04:28:51.524Z,12.87
2019-04-05T04:31:20.964Z,12.73
2019-04-05T04:33:50.553Z,14.70
2019-04-05T04:36:20.216Z,13.87
2019-04-05T04:38:50.747Z,14.13
2019-04-05T04:41:20.217Z,13.37
2019-04-05T04:43:49.720Z,13.67
2019-04-05T04:46:20.263Z,13.67
2019-04-05T04:48:49.811Z,13.97
2019-04-05T04:51:20.472Z,14.67
2019-04-05T04:53:49.961Z,15.37
2019-04-05T04:56:19.625Z,15.47
2019-04-05T04:58:49.130Z,15.30
2019-04-05T05:01:18.801Z,14.27
2019-04-05T05:03:48.722Z,15.33
2019-04-05T05:06:18.242Z,14.77
2019-04-05T05:08:47.655Z,14.07
2019-04-05T05:11:18.189Z,14.37
2019-04-05T05:13:47.800Z,14.87
2019-04-05T05:16:17.870Z,14.87
2019-04-05T05:18:47.311Z,15.83
2019-04-05T05:21:16.998Z,15.37
2019-04-05T05:23:46.880Z,14.70
2019-04-05T05:26:21.656Z,15.87
2019-04-05T05:28:51.350Z,13.60
2019-04-05T05:31:21.119Z,15.53
2019-04-05T05:33:50.490Z,16.23
2019-04-05T05:36:20.580Z,16.07
2019-04-05T05:38:50.508Z,16.00
2019-04-05T05:41:19.890Z,16.37
2019-04-05T05:47:52.578Z,14.60
2019-04-05T05:50:22.040Z,13.33
2019-04-05T05:52:51.553Z,13.90
2019-04-05T05:55:20.969Z,14.73
2019-04-05T05:57:54.219Z,13.80
2019-04-05T06:00:23.663Z,14.00
2019-04-05T06:02:53.076Z,12.83
2019-04-05T06:05:22.449Z,14.03
2019-04-05T06:07:51.880Z,13.43
2019-04-05T06:10:21.316Z,13.60
2019-04-05T06:12:51.511Z,13.30
2019-04-05T06:15:20.936Z,13.57
2019-04-05T06:17:50.390Z,13.20
2019-04-05T06:20:20.046Z,13.13
2019-04-05T06:22:49.531Z,13.77
2019-04-05T06:25:19.045Z,12.97
2019-04-05T06:27:48.408Z,13.67
2019-04-05T06:30:17.971Z,14.47
2019-04-05T06:32:47.312Z,13.90
2019-04-05T06:35:16.740Z,14.40
2019-04-05T06:37:46.180Z,14.70
2019-04-05T06:40:15.584Z,15.00
2019-04-05T06:42:45.057Z,15.27
2019-04-05T06:45:14.598Z,14.47
2019-04-05T06:47:44.035Z,14.80
2019-04-05T06:50:13.442Z,14.10
2019-04-05T06:52:43.427Z,14.20
2019-04-05T06:55:13.411Z,14.33
2019-04-05T06:57:42.831Z,14.70
2019-04-05T07:00:12.998Z,13.73
2019-04-05T07:02:42.487Z,13.43
2019-04-05T07:05:12.119Z,14.43
2019-04-05T07:07:41.537Z,14.17
2019-04-05T07:10:11.192Z,14.53
2019-04-05T07:12:40.603Z,14.13
2019-04-05T07:15:10.274Z,14.23
2019-04-05T07:17:39.793Z,14.83
2019-04-05T07:20:09.163Z,14.17
2019-04-05T07:22:39.580Z,13.70
2019-04-05T07:25:09.363Z,13.10
2019-04-05T07:27:38.730Z,14.00
2019-04-05T07:30:08.771Z,13.33
2019-04-05T07:32:38.546Z,14.00
2019-04-05T07:35:07.951Z,13.73
2019-04-05T07:37:37.788Z,13.07
2019-04-05T07:40:07.876Z,13.67
2019-04-05T07:42:38.060Z,13.23
2019-04-05T07:45:08.316Z,13.80
2019-04-05T07:47:37.965Z,13.07
2019-04-05T07:50:08.292Z,13.23
2019-04-05T07:52:37.849Z,13.03
2019-04-05T07:55:07.797Z,14.43
2019-04-05T07:57:37.195Z,14.10
2019-04-05T08:00:09.642Z,12.90
2019-04-05T08:02:39.039Z,13.80
2019-04-05T08:05:08.874Z,13.17
2019-04-05T08:07:41.819Z,12.97
2019-04-05T08:10:12.002Z,12.67
2019-04-05T08:12:41.962Z,13.23
2019-04-05T08:15:11.374Z,12.23
2019-04-05T08:17:40.729Z,12.50
2019-04-05T08:20:10.163Z,11.70
2019-04-05T08:22:39.567Z,12.37
2019-04-05T08:25:08.944Z,12.87
2019-04-05T08:27:38.368Z,13.47
2019-04-05T08:30:08.091Z,13.23
2019-04-05T08:32:37.480Z,12.67
2019-04-05T08:35:06.979Z,12.77
2019-04-05T08:37:36.366Z,13.40
2019-04-05T08:40:06.096Z,12.50
2019-04-05T08:42:35.509Z,12.40
2019-04-05T08:45:05.425Z,11.50
2019-04-05T08:47:34.838Z,12.73
2019-04-05T08:50:05.024Z,12.33
2019-04-05T08:52:34.450Z,13.53
2019-04-05T08:55:03.945Z,12.20
2019-04-05T08:57:33.744Z,13.20
2019-04-05T09:00:03.363Z,12.17
2019-04-05T09:02:32.752Z,12.30
2019-04-05T09:05:02.174Z,13.00
2019-04-05T09:07:31.545Z,12.27
2019-04-05T09:10:00.947Z,13.03
2019-04-05T09:12:30.450Z,13.27
2019-04-05T09:14:59.936Z,12.37
2019-04-05T09:17:29.341Z,10.83
2019-04-05T09:19:58.778Z,11.10
2019-04-05T09:22:28.704Z,11.50
2019-04-05T09:24:58.058Z,9.47
2019-04-05T09:27:27.471Z,9.53
2019-04-05T09:29:56.861Z,10.70
2019-04-05T09:32:26.192Z,11.33
2019-04-05T09:34:55.569Z,10.30
2019-04-05T09:37:24.941Z,11.37
2019-04-05T09:39:54.922Z,10.77
2019-04-05T09:42:24.327Z,11.33
2019-04-05T09:44:53.738Z,11.50
2019-04-05T09:47:23.300Z,10.63
2019-04-05T09:49:52.708Z,11.00
2019-04-05T09:52:22.209Z,11.30
2019-04-05T09:54:51.632Z,10.80
2019-04-05T09:57:21.047Z,11.57
2019-04-05T09:59:50.473Z,10.13
2019-04-05T10:02:19.921Z,11.07
2019-04-05T10:04:49.364Z,11.97
2019-04-05T10:07:18.753Z,11.27
2019-04-05T10:09:50.434Z,10.07
2019-04-05T10:12:19.256Z,9.70
2019-04-05T10:14:48.701Z,9.57
2019-04-05T10:17:18.079Z,10.70
2019-04-05T10:19:50.236Z,10.73
2019-04-05T10:22:19.884Z,11.23
2019-04-05T10:24:49.266Z,11.00
2019-04-05T10:27:24.374Z,11.63
2019-04-05T10:29:53.781Z,10.60
2019-04-05T10:32:23.274Z,11.13
2019-04-05T10:34:52.626Z,11.23
2019-04-05T10:37:21.965Z,11.57
2019-04-05T10:39:51.415Z,11.17
2019-04-05T10:42:33.879Z,10.67
2019-04-05T10:45:05.434Z,11.77
2019-04-05T10:47:34.854Z,11.60
2019-04-05T10:50:05.708Z,12.47
2019-04-05T10:52:35.071Z,13.37
2019-04-05T10:55:05.150Z,13.80
2019-04-05T10:57:34.553Z,12.13
2019-04-05T11:00:05.309Z,13.13
2019-04-05T11:02:34.719Z,13.90
2019-04-05T11:05:04.337Z,14.30
2019-04-05T11:07:35.020Z,13.10
2019-04-05T11:10:05.920Z,12.67
2019-04-05T11:12:35.310Z,12.30
2019-04-05T11:15:05.332Z,13.23
2019-04-05T11:17:35.055Z,12.57
2019-04-05T11:20:20.168Z,13.30
2019-04-05T11:30:27.015Z,12.63
2019-04-05T11:32:56.518Z,12.67
2019-04-05T11:35:26.449Z,12.63
2019-04-05T11:37:56.167Z,12.60
2019-04-05T11:40:27.061Z,11.97
2019-04-05T11:42:58.037Z,11.13
2019-04-05T11:45:33.108Z,11.90
2019-04-05T11:48:04.274Z,12.60
2019-04-05T11:50:42.457Z,13.77
2019-04-05T11:53:22.258Z,12.00
2019-04-05T11:56:21.040Z,13.00
2019-04-05T11:59:00.130Z,13.13
2019-04-05T12:08:40.324Z,13.87
2019-04-05T12:11:12.615Z,12.13
2019-04-05T12:13:43.833Z,12.13
2019-04-05T12:16:19.570Z,12.37
2019-04-05T12:18:54.416Z,12.07
2019-04-05T12:24:55.668Z,12.40
2019-04-05T12:27:25.129Z,12.47
2019-04-05T12:29:54.549Z,11.30
2019-04-05T12:32:33.665Z,12.03
2019-04-05T12:34:58.833Z,11.23
2019-04-05T12:37:28.256Z,12.00
2019-04-05T12:39:57.626Z,12.50
2019-04-05T12:42:27.065Z,11.60
2019-04-05T12:44:56.418Z,11.50
2019-04-05T12:47:25.844Z,11.50
2019-04-05T12:49:55.294Z,11.73
2019-04-05T12:52:27.350Z,10.67
2019-04-05T12:54:55.819Z,11.00
2019-04-05T12:57:25.704Z,11.43
2019-04-05T12:59:56.692Z,11.23
2019-04-05T13:02:33.360Z,11.97
2019-04-05T13:04:57.340Z,12.17
2019-04-05T13:07:26.749Z,11.77
2019-04-05T13:09:56.641Z,12.57
2019-04-05T13:12:27.022Z,12.60
2019-04-05T13:15:10.976Z,11.73
2019-04-05T13:17:31.045Z,10.87
2019-04-05T13:20:00.872Z,11.50
2019-04-05T13:22:32.239Z,10.90
2019-04-05T13:25:01.072Z,12.47
2019-04-05T13:27:30.506Z,10.03
2019-04-05T13:29:59.867Z,10.00
2019-04-05T13:32:29.306Z,10.07
2019-04-05T13:34:58.799Z,10.77
2019-04-05T13:37:28.532Z,9.50
2019-04-05T13:40:00.005Z,9.23
2019-04-05T13:42:31.914Z,9.33
2019-04-05T13:45:01.103Z,9.47
2019-04-05T13:47:32.958Z,9.23
2019-04-05T13:50:02.017Z,10.30
2019-04-05T13:52:31.438Z,10.47
2019-04-05T13:55:00.817Z,9.90
2019-04-05T13:57:30.245Z,9.10
2019-04-05T13:59:59.619Z,9.33
2019-04-05T14:02:28.997Z,9.40
2019-04-05T14:04:58.725Z,8.93
2019-04-05T14:07:28.107Z,9.93
2019-04-05T14:09:57.523Z,10.10
2019-04-05T14:12:31.213Z,9.40
2019-04-05T14:14:59.902Z,8.90
2019-04-05T14:17:29.358Z,10.70
2019-04-05T14:19:58.784Z,9.20
2019-04-05T14:22:28.148Z,9.53
2019-04-05T14:24:57.774Z,9.73
2019-04-05T14:27:27.158Z,9.20
2019-04-05T14:29:56.939Z,9.67
2019-04-05T14:32:26.305Z,8.70
2019-04-05T14:34:55.722Z,8.90
2019-04-05T14:37:25.219Z,8.70
2019-04-05T14:39:54.633Z,8.60
2019-04-05T14:42:24.428Z,9.80
2019-04-05T14:44:53.827Z,9.43
2019-04-05T14:47:23.543Z,10.00
2019-04-05T14:49:52.936Z,10.83
2019-04-05T14:52:22.293Z,10.63
2019-04-05T14:54:51.678Z,10.87
2019-04-05T14:57:21.073Z,10.20
2019-04-05T14:59:50.536Z,13.70
2019-04-05T15:02:19.931Z,10.40
2019-04-05T15:04:49.576Z,10.33
2019-04-05T15:07:20.890Z,11.93
2019-04-05T15:09:50.138Z,10.47
2019-04-05T15:12:19.582Z,11.10
2019-04-05T15:14:48.992Z,9.83
2019-04-05T15:17:18.414Z,10.07
2019-04-05T15:19:47.823Z,11.03
2019-04-05T15:22:17.259Z,10.83
2019-04-05T15:24:47.106Z,10.73
2019-04-05T15:27:17.093Z,10.20
2019-04-05T15:29:46.539Z,9.87
2019-04-05T15:32:15.885Z,9.43
2019-04-05T15:34:45.300Z,10.37
2019-04-05T15:37:16.143Z,10.20
2019-04-05T15:39:45.716Z,10.70
2019-04-05T15:42:15.175Z,9.73
2019-04-05T15:44:44.561Z,10.73
2019-04-05T15:47:13.962Z,11.43
2019-04-05T15:49:43.398Z,9.87
2019-04-05T15:52:18.550Z,10.60
2019-04-05T15:54:44.814Z,10.50
2019-04-05T15:57:14.258Z,9.97
2019-04-05T15:59:45.167Z,10.23
2019-04-05T16:02:14.884Z,10.57
2019-04-05T16:04:44.296Z,11.90
2019-04-05T16:07:13.753Z,11.30
2019-04-05T16:09:43.148Z,10.63
2019-04-05T16:12:12.538Z,11.47
2019-04-05T16:14:41.905Z,13.37
2019-04-05T16:17:12.631Z,13.60
2019-04-05T16:19:42.349Z,12.10
2019-04-05T16:22:11.768Z,13.60
2019-04-05T16:24:41.173Z,13.17
2019-04-05T16:27:10.651Z,12.20
2019-04-05T16:29:40.012Z,11.47
2019-04-05T16:32:09.418Z,12.80
2019-04-05T16:34:38.807Z,13.23
2019-04-05T16:37:08.211Z,13.97
2019-04-05T16:39:37.594Z,15.00
2019-04-05T16:42:10.095Z,15.63
2019-04-05T16:44:38.199Z,17.10
2019-04-05T16:47:07.651Z,15.50
2019-04-05T16:49:37.062Z,14.80
2019-04-05T16:52:06.619Z,15.23
2019-04-05T16:54:36.244Z,14.90
2019-04-05T16:57:05.665Z,16.20
2019-04-05T16:59:35.227Z,17.90
2019-04-05T17:02:04.582Z,19.60
2019-04-05T17:04:34.009Z,21.20
2019-04-05T17:07:03.914Z,19.33
2019-04-05T17:09:33.361Z,21.00
2019-04-05T17:12:02.827Z,22.30
2019-04-05T17:14:32.280Z,22.77
2019-04-05T17:17:01.638Z,22.40
2019-04-05T17:19:31.124Z,23.57
2019-04-05T17:22:00.627Z,23.73
2019-04-05T17:24:30.065Z,22.43
2019-04-05T17:26:59.511Z,19.67
2019-04-05T17:29:28.951Z,20.27
2019-04-05T17:31:58.344Z,22.03
2019-04-05T17:34:27.794Z,24.17
2019-04-05T17:36:57.213Z,22.80
2019-04-05T17:39:26.627Z,23.77
2019-04-05T17:41:56.032Z,27.30
2019-04-05T17:44:25.442Z,25.13
2019-04-05T17:46:54.845Z,27.40
2019-04-05T17:49:24.246Z,27.80
2019-04-05T17:51:53.717Z,25.80
2019-04-05T17:54:23.496Z,26.93
2019-04-05T17:56:53.059Z,24.13
2019-04-05T17:59:22.568Z,21.80
2019-04-05T18:01:52.158Z,17.50
2019-04-05T18:04:21.620Z,16.03
2019-04-05T18:06:51.642Z,17.80
2019-04-05T18:09:21.068Z,17.73
2019-04-05T18:11:50.455Z,16.70
2019-04-05T18:14:19.980Z,17.17
2019-04-05T18:16:49.392Z,17.70
2019-04-05T18:19:19.869Z,15.30
2019-04-05T18:21:49.296Z,15.33
2019-04-05T18:24:18.702Z,16.60
2019-04-05T18:26:48.136Z,14.73
2019-04-05T18:29:17.504Z,14.83
2019-04-05T18:31:46.915Z,16.30
2019-04-05T18:34:16.323Z,16.83
2019-04-05T18:36:46.546Z,18.80
2019-04-05T18:39:15.899Z,17.43
2019-04-05T18:41:45.389Z,18.27
2019-04-05T18:44:14.840Z,15.63
2019-04-05T18:46:44.370Z,13.60
2019-04-05T18:49:13.756Z,12.97
2019-04-05T18:51:43.253Z,12.97
2019-04-05T18:54:12.649Z,13.63
2019-04-05T18:56:42.044Z,16.13
2019-04-05T18:59:11.469Z,18.57
2019-04-05T19:01:41.248Z,28.67
2019-04-05T19:04:10.683Z,33.90
2019-04-05T19:06:40.115Z,38.07
2019-04-05T19:09:11.877Z,37.40
2019-04-05T19:11:41.009Z,42.00
2019-04-05T19:14:10.757Z,44.97
2019-04-05T19:16:40.128Z,40.07
2019-04-05T19:19:09.620Z,42.00
2019-04-05T19:21:39.037Z,34.50
2019-04-05T19:24:08.387Z,34.50
2019-04-05T19:26:37.820Z,37.67
2019-04-05T19:29:07.184Z,41.63
2019-04-05T19:49:15.834Z,31.07
2019-04-05T19:51:45.203Z,28.90
2019-04-05T19:54:14.573Z,28.27
2019-04-05T19:56:43.999Z,27.60
2019-04-05T19:59:13.398Z,30.57
2019-04-05T20:01:42.812Z,31.97
2019-04-05T20:04:12.341Z,31.77
2019-04-05T20:06:41.732Z,32.73
2019-04-05T20:09:11.105Z,28.63
2019-04-05T20:11:40.496Z,31.97
2019-04-05T20:14:09.861Z,30.27
2019-04-05T20:16:39.207Z,27.67
2019-04-05T20:19:08.633Z,27.37
2019-04-05T20:21:38.306Z,25.77
2019-04-05T20:24:14.198Z,27.30
2019-04-05T20:26:38.837Z,28.10
2019-04-05T20:29:08.449Z,29.07
2019-04-05T20:31:37.841Z,32.33
2019-04-05T20:34:07.246Z,36.90
2019-04-05T20:36:36.649Z,43.33
2019-04-05T20:39:07.304Z,46.87
2019-04-05T20:41:36.706Z,42.13
2019-04-05T20:44:06.070Z,45.10
2019-04-05T20:46:35.455Z,36.80
2019-04-05T20:49:04.920Z,34.50
2019-04-05T20:51:34.269Z,29.67
2019-04-05T20:54:03.651Z,27.43
2019-04-05T20:56:33.045Z,28.27
2019-04-05T20:59:02.483Z,26.77
2019-04-05T21:01:31.850Z,24.07
2019-04-05T21:04:01.332Z,35.83
2019-04-05T21:06:30.728Z,35.97
2019-04-05T21:09:00.142Z,35.87
2019-04-05T21:11:29.623Z,33.97
2019-04-05T21:13:58.988Z,32.97
2019-04-05T21:16:28.360Z,30.80
2019-04-05T21:18:57.812Z,33.10
2019-04-05T21:21:27.229Z,33.13
2019-04-05T21:23:56.577Z,34.30
2019-04-05T21:26:26.006Z,35.60
2019-04-05T21:28:55.352Z,31.93
2019-04-05T21:31:24.702Z,32.20
2019-04-05T21:33:54.023Z,32.70
2019-04-05T21:36:23.509Z,32.13
2019-04-05T21:38:52.886Z,31.93
2019-04-05T21:41:22.382Z,29.73
2019-04-05T21:43:51.727Z,25.83
2019-04-05T21:46:21.157Z,21.93
2019-04-05T21:48:50.573Z,20.07
2019-04-05T21:51:19.975Z,22.60
2019-04-05T21:53:49.371Z,19.83
2019-04-05T21:56:18.751Z,19.37
2019-04-05T21:58:48.234Z,18.03
2019-04-05T22:01:18.163Z,16.20
2019-04-05T22:03:47.576Z,18.30
2019-04-05T22:06:17.051Z,15.70
2019-04-05T22:08:46.468Z,13.93
2019-04-05T22:11:15.883Z,15.00
2019-04-05T22:13:45.620Z,13.97
2019-04-05T22:16:15.046Z,15.27
2019-04-05T22:18:44.469Z,13.73
2019-04-05T22:21:14.056Z,14.37
2019-04-05T22:23:43.444Z,14.93
2019-04-05T22:26:12.894Z,13.70
2019-04-05T22:28:42.291Z,14.00
2019-04-05T22:31:11.796Z,13.10
2019-04-05T22:33:41.234Z,12.77
2019-04-05T22:36:10.693Z,12.57
2019-04-05T22:38:40.109Z,13.20
2019-04-05T22:41:09.515Z,13.37
2019-04-05T22:43:38.962Z,12.63
2019-04-05T22:46:08.404Z,12.17
2019-04-05T22:48:37.939Z,13.40
2019-04-05T22:51:07.297Z,12.07
2019-04-05T22:53:36.684Z,13.60
2019-04-05T22:56:06.135Z,12.30
2019-04-05T22:58:35.573Z,12.67
2019-04-05T23:01:05.098Z,12.00
2019-04-05T23:03:34.508Z,12.57
2019-04-05T23:06:04.089Z,12.40
2019-04-05T23:08:33.493Z,12.20
2019-04-05T23:11:03.096Z,12.20
2019-04-05T23:13:32.563Z,12.83
2019-04-05T23:16:02.224Z,11.77
2019-04-05T23:18:31.707Z,12.90
2019-04-05T23:21:01.120Z,13.10
2019-04-05T23:23:30.525Z,12.30
2019-04-05T23:25:59.993Z,13.23
2019-04-05T23:28:29.563Z,11.37
2019-04-05T23:30:58.988Z,11.43
2019-04-05T23:33:28.437Z,13.10
2019-04-05T23:35:57.880Z,13.63
2019-04-05T23:38:27.274Z,12.57
2019-04-05T23:40:56.677Z,13.27
2019-04-05T23:43:26.048Z,13.03
2019-04-05T23:45:55.540Z,12.83
2019-04-05T23:48:24.956Z,14.27
2019-04-05T23:50:54.423Z,13.70
2019-04-05T23:53:23.840Z,13.20
2019-04-05T23:55:53.262Z,13.43
2019-04-05T23:58:22.685Z,13.63
